Observations for OLBIA COSTA SMERALD, Italy (LIEO)

LIEO 200750Z 01014KT 9999 SCT030 12/05 Q1023
LIEO 200720Z 02012KT 9999 SCT030 11/05 Q1023
LIEO 200650Z 02012KT 9999 SCT030 11/05 Q1023
LIEO 200620Z 02014KT 9999 SCT030 11/05 Q1022
LIEO 200550Z 02011KT 9999 SCT035 11/05 Q1022
LIEO 200520Z 03008KT 9999 FEW035 11/05 Q1022
LIEO 200450Z 03010KT 9999 SCT030 11/05 Q1022
LIEO 200420Z 02014KT 9999 FEW035 11/05 Q1022
LIEO 200350Z 02011KT 9999 SCT035 11/06 Q1021
LIEO 200320Z 35008KT 320V020 9999 SCT040 11/05 Q1021
LIEO 200250Z 36009KT 9999 SCT050 11/05 Q1021
LIEO 200220Z 36008KT 330V030 9999 SCT050 11/05 Q1021
LIEO 200150Z 01013KT CAVOK 11/05 Q1021  
LIEO 200120Z 01012KT 9999 SCT050 12/06 Q1021
LIEO 200050Z 01013KT 9999 SCT050 12/06 Q1021
LIEO 200020Z 01009KT 9999 -RA SCT030 12/07 Q1021 RERA   
LIEO 192350Z 05013KT 020V080 9999 RA SCT030 11/07 Q1022 
LIEO 192320Z 03009KT 350V060 9999 -RA SCT030 12/07 Q1021
LIEO 192250Z 01011KT 340V040 9999 SCT040 13/06 Q1021
LIEO 192220Z 01012KT 9999 SCT040 13/06 Q1021
LIEO 192150Z 01013KT 9999 SCT030 13/06 Q1021
LIEO 192120Z 01011KT 9999 SCT040 13/06 Q1021
LIEO 192050Z 31003KT 290V350 9999 SCT040 11/06 Q1021
LIEO 192020Z 29004KT 9999 SCT030 11/06 Q1021
LIEO 191950Z 30004KT 270V350 9999 SCT030 12/06 Q1021
LIEO 191920Z 33005KT 300V360 9999 SCT030 12/06 Q1021
LIEO 191850Z 36006KT 320V040 9999 SCT030 12/06 Q1021
LIEO 191820Z 36006KT 330V040 9999 SCT030 12/06 Q1020
LIEO 191750Z 01008KT 340V040 9999 SCT025 12/06 Q1020
LIEO 191720Z 02008KT 350V050 9999 SCT025 12/06 Q1020
LIEO 191650Z 02010KT 9999 SCT025 12/06 Q1019
LIEO 191620Z 01010KT 9999 FEW030 13/06 Q1019
LIEO 191550Z 03011KT 360V060 9999 FEW030 13/06 Q1019
LIEO 191520Z 03011KT 9999 FEW030 14/06 Q1019
LIEO 191450Z 02011KT 350V050 9999 FEW030 14/06 Q1019
LIEO 191420Z 02012KT 360V060 9999 FEW030 15/05 Q1019
LIEO 191350Z 02013KT 350V050 9999 FEW030 15/05 Q1019
LIEO 191320Z 02014KT 9999 FEW030 14/05 Q1019
LIEO 191250Z 03015KT 360V060 9999 FEW035 15/06 Q1018
LIEO 191220Z 03014KT 360V060 9999 FEW035 15/06 Q1019
LIEO 191150Z 03015KT 9999 FEW035 15/06 Q1019
LIEO 191120Z 03014KT 9999 FEW035 15/06 Q1019
LIEO 191050Z 01014KT 9999 SCT035 15/07 Q1019
LIEO 191020Z 02013KT 9999 SCT035 15/06 Q1018
LIEO 190950Z 01010KT 330V040 9999 SCT035 14/06 Q1018
LIEO 190920Z 01010KT 340V050 9999 FEW035 14/06 Q1018
LIEO 190850Z 36007KT 330V030 9999 SCT035 13/06 Q1018
LIEO 190820Z 01004KT 300V080 9999 SCT035 13/06 Q1018
LIEO 190750Z 29003KT 250V350 9999 FEW040 13/06 Q1018
LIEO 190720Z 23005KT 9999 FEW040 10/07 Q1018